Time;durP1;ratioP1;P1;durP2;ratioP2;P2;SDS_P1;SDS_P2;PMS_P1;PMS_P2;Temp;Humidity;BMP_temperature;BMP_pressure;BME280_temperature;BME280_humidity;BME280_pressure;Samples;Min_cycle;Max_cycle;Signal;HPM_P1;HPM_P2
2024/02/23 00:00:13;;;;;;;;;0.00;0.00;;;;;13.87;100.00;98993.94;2104258;27;46291;-51
2024/02/23 00:01:13;;;;;;;;;0.00;0.00;;;;;13.86;100.00;98997.56;2105970;27;46289;-48
2024/02/23 00:02:14;;;;;;;;;1.00;0.67;;;;;13.90;100.00;99001.75;2106318;27;46567;-51
2024/02/23 00:03:14;;;;;;;;;1.00;1.00;;;;;13.86;100.00;98985.09;2106976;27;46336;-52
2024/02/23 00:04:14;;;;;;;;;0.67;0.67;;;;;13.86;100.00;98997.56;2107069;27;46355;-54
2024/02/23 00:05:15;;;;;;;;;1.00;1.00;;;;;13.89;100.00;98992.03;2106449;27;46378;-52
2024/02/23 00:06:15;;;;;;;;;0.33;0.33;;;;;13.88;100.00;99001.84;2092671;28;46597;-48
2024/02/23 00:07:15;;;;;;;;;1.00;1.00;;;;;13.89;100.00;99002.72;2093104;28;46584;-52
2024/02/23 00:08:16;;;;;;;;;1.00;1.00;;;;;13.88;100.00;99007.19;2106983;27;46786;-51
2024/02/23 00:09:16;;;;;;;;;2.00;0.33;;;;;13.88;100.00;99001.84;2106181;27;46586;-50
2024/02/23 00:10:16;;;;;;;;;1.00;1.00;;;;;13.87;100.00;99005.47;2106948;27;46223;-50
2024/02/23 00:11:17;;;;;;;;;2.00;0.00;;;;;13.86;100.00;99008.25;2106909;27;46289;-49
2024/02/23 00:12:17;;;;;;;;;1.67;1.00;;;;;13.79;100.00;99002.41;2103859;27;46542;-49
2024/02/23 00:13:17;;;;;;;;;1.00;1.00;;;;;13.79;100.00;99005.09;2107093;27;46143;-51
2024/02/23 00:14:21;;;;;;;;;0.33;0.33;;;;;13.78;100.00;99011.38;2106672;27;46260;-46
2024/02/23 00:15:21;;;;;;;;;1.50;1.00;;;;;13.77;100.00;99005.19;2107918;27;46450;-49
2024/02/23 00:16:21;;;;;;;;;1.00;1.00;;;;;13.75;100.00;99004.44;2105839;27;46409;-53
2024/02/23 00:17:23;;;;;;;;;0.00;0.00;;;;;13.75;100.00;99003.56;2105206;27;46805;-49
2024/02/23 00:18:23;;;;;;;;;1.00;1.00;;;;;13.70;100.00;99001.16;2107616;27;46813;-54
2024/02/23 00:19:24;;;;;;;;;0.00;0.00;;;;;13.70;100.00;99001.16;2107891;27;46544;-51
2024/02/23 00:20:24;;;;;;;;;0.67;0.00;;;;;13.68;100.00;99016.41;2109706;27;46692;-50
2024/02/23 00:21:24;;;;;;;;;0.00;0.00;;;;;13.64;100.00;99008.69;2108215;27;46631;-50
2024/02/23 00:22:25;;;;;;;;;1.00;1.00;;;;;13.63;100.00;99007.84;2108519;27;46136;-51
2024/02/23 00:23:26;;;;;;;;;0.00;0.00;;;;;13.62;100.00;99008.81;2107470;27;46425;-49
2024/02/23 00:24:26;;;;;;;;;0.00;0.00;;;;;13.61;100.00;99008.91;2108096;27;46749;-49
2024/02/23 00:25:27;;;;;;;;;2.00;1.00;;;;;13.58;100.00;99015.25;2108685;27;46543;-53
2024/02/23 00:26:28;;;;;;;;;1.00;0.00;;;;;13.60;100.00;99017.84;2100126;28;46759;-49
2024/02/23 00:27:29;;;;;;;;;1.00;1.00;;;;;13.59;100.00;99011.63;2099784;27;46401;-50
2024/02/23 00:28:29;;;;;;;;;1.00;1.00;;;;;13.58;100.00;98999.25;2106442;27;46655;-50
2024/02/23 00:29:29;;;;;;;;;2.00;2.00;;;;;13.57;100.00;99004.69;2109813;27;45454;-49
2024/02/23 00:30:30;;;;;;;;;0.00;0.00;;;;;13.58;100.00;99007.25;2109556;27;45858;-48
2024/02/23 00:31:30;;;;;;;;;1.67;1.00;;;;;13.58;100.00;99009.91;2099331;28;46573;-50
2024/02/23 00:32:31;;;;;;;;;1.33;1.33;;;;;13.60;100.00;99010.72;2106851;27;46814;-50
2024/02/23 00:33:31;;;;;;;;;0.33;0.33;;;;;13.58;100.00;99023.25;2115685;27;46954;-51
2024/02/23 00:34:32;;;;;;;;;0.00;0.00;;;;;13.58;100.00;99017.91;2108384;27;46615;-51
2024/02/23 00:35:32;;;;;;;;;0.33;0.00;;;;;13.55;100.00;99021.63;2106517;27;46024;-49
2024/02/23 00:36:32;;;;;;;;;1.00;0.00;;;;;13.48;100.00;99028.28;2107829;27;46295;-48
2024/02/23 00:37:35;;;;;;;;;0.00;0.00;;;;;13.48;100.00;99019.44;2105803;27;46910;-51
2024/02/23 00:38:35;;;;;;;;;0.25;0.25;;;;;13.48;100.00;99022.13;2108985;27;45875;-51
2024/02/23 00:39:37;;;;;;;;;0.00;0.00;;;;;13.47;100.00;99020.41;2108111;27;46498;-49
2024/02/23 00:40:38;;;;;;;;;1.00;0.25;;;;;13.47;100.00;99020.41;2108290;27;45726;-50
2024/02/23 00:41:38;;;;;;;;;0.33;0.33;;;;;13.47;100.00;99017.72;2107060;27;46199;-49
2024/02/23 00:42:38;;;;;;;;;0.33;0.33;;;;;13.46;100.00;99026.66;2108316;27;46423;-51
2024/02/23 00:43:40;;;;;;;;;0.00;0.00;;;;;13.48;100.00;99020.31;2107470;27;46199;-53
2024/02/23 00:44:40;;;;;;;;;0.00;0.00;;;;;13.48;100.00;99012.31;2107229;27;46601;-50
2024/02/23 00:45:40;;;;;;;;;0.67;0.67;;;;;13.46;100.00;99024.84;2108220;27;45901;-51
2024/02/23 00:46:41;;;;;;;;;0.00;0.00;;;;;13.45;100.00;99031.13;2108727;27;46256;-47
2024/02/23 00:47:43;;;;;;;;;0.00;0.00;;;;;13.43;100.00;99022.38;2108601;27;46114;-54
2024/02/23 00:48:43;;;;;;;;;2.00;0.25;;;;;13.41;100.00;99021.59;2109396;27;46896;-52
2024/02/23 00:49:43;;;;;;;;;0.67;0.00;;;;;13.45;100.00;99015.13;2109109;27;46388;-51
2024/02/23 00:50:44;;;;;;;;;0.00;0.00;;;;;13.45;100.00;99019.59;2108762;27;46452;-54
2024/02/23 00:51:44;;;;;;;;;1.00;1.00;;;;;13.40;100.00;99019.91;2108054;27;46325;-50
2024/02/23 00:52:45;;;;;;;;;1.00;0.67;;;;;13.44;100.00;99023.22;2109054;27;46502;-52
2024/02/23 00:53:45;;;;;;;;;0.67;0.67;;;;;13.39;100.00;99017.31;2108427;27;46686;-51
2024/02/23 00:54:45;;;;;;;;;1.00;1.00;;;;;13.37;100.00;99029.88;2108254;27;46926;-49
2024/02/23 00:55:46;;;;;;;;;0.00;0.00;;;;;13.39;100.00;99020.84;2105644;27;46512;-53
2024/02/23 00:56:46;;;;;;;;;1.00;0.00;;;;;13.42;100.00;99014.47;2108674;27;46176;-50
2024/02/23 00:57:46;;;;;;;;;1.00;1.00;;;;;13.43;100.00;99019.69;2099025;28;46411;-53
2024/02/23 00:58:47;;;;;;;;;3.00;1.00;;;;;13.43;100.00;99024.19;2099331;28;46341;-48
2024/02/23 00:59:47;;;;;;;;;1.00;0.00;;;;;13.43;100.00;99029.50;2108821;27;46585;-52
2024/02/23 01:00:47;;;;;;;;;2.00;0.00;;;;;13.39;100.00;99028.84;2106364;27;45809;-51
2024/02/23 01:01:48;;;;;;;;;0.33;0.33;;;;;13.39;100.00;99028.84;2108797;27;47088;-51
2024/02/23 01:02:48;;;;;;;;;2.33;1.00;;;;;13.37;100.00;99020.09;2107194;27;45612;-52
2024/02/23 01:03:48;;;;;;;;;0.00;0.00;;;;;13.38;100.00;99023.59;2108120;27;46659;-53
2024/02/23 01:04:49;;;;;;;;;1.00;1.00;;;;;13.43;100.00;99034.84;2108979;27;46348;-50
2024/02/23 01:05:49;;;;;;;;;1.00;1.00;;;;;13.49;100.00;99016.69;2107071;27;46504;-52
2024/02/23 01:06:49;;;;;;;;;0.33;0.33;;;;;13.54;100.00;99014.59;2108578;27;46666;-53
2024/02/23 01:07:50;;;;;;;;;0.00;0.00;;;;;13.60;100.00;99012.50;2108392;27;46635;-52
2024/02/23 01:08:50;;;;;;;;;2.00;1.00;;;;;13.55;100.00;99020.78;2108540;27;45944;-52
2024/02/23 01:09:51;;;;;;;;;0.33;0.33;;;;;13.67;100.00;99017.34;2107787;27;46173;-51
2024/02/23 01:10:51;;;;;;;;;2.00;1.67;;;;;13.64;100.00;99017.56;2107472;27;47206;-51
2024/02/23 01:11:52;;;;;;;;;2.67;1.00;;;;;13.68;100.00;99010.22;2107792;27;46479;-51
2024/02/23 01:12:52;;;;;;;;;0.00;0.00;;;;;13.70;100.00;99008.31;2107988;27;46852;-50
2024/02/23 01:13:52;;;;;;;;;1.00;1.00;;;;;13.67;100.00;99009.38;2105844;27;46576;-52
2024/02/23 01:14:53;;;;;;;;;1.00;1.00;;;;;13.73;100.00;99003.66;2106592;27;46872;-50
2024/02/23 01:15:54;;;;;;;;;3.00;1.33;;;;;13.71;100.00;99004.69;2107278;27;46673;-52
2024/02/23 01:16:54;;;;;;;;;1.00;1.00;;;;;13.64;100.00;98998.91;2108270;27;46744;-50
2024/02/23 01:17:56;;;;;;;;;2.00;1.33;;;;;13.64;100.00;99008.69;2106280;27;46760;-48
2024/02/23 01:18:56;;;;;;;;;0.25;0.25;;;;;13.60;100.00;99009.84;2107065;27;46393;-51
2024/02/23 01:19:56;;;;;;;;;0.33;0.33;;;;;13.62;100.00;99007.94;2108013;27;46286;-48
2024/02/23 01:20:57;;;;;;;;;0.00;0.00;;;;;13.60;100.00;99001.84;2107310;27;46212;-48
2024/02/23 01:22:01;;;;;;;;;0.00;0.00;;;;;13.56;100.00;99006.50;2099403;28;46651;-49
2024/02/23 01:23:01;;;;;;;;;1.00;1.00;;;;;13.56;100.00;99006.50;2099221;28;46990;-51
2024/02/23 01:24:02;;;;;;;;;1.00;1.00;;;;;13.52;100.00;99007.63;2108082;27;46741;-51
2024/02/23 01:25:02;;;;;;;;;0.00;0.00;;;;;13.46;100.00;99000.84;2107178;27;47270;-52
2024/02/23 01:26:03;;;;;;;;;0.00;0.00;;;;;13.44;100.00;99017.91;2109062;27;46278;-51
2024/02/23 01:27:03;;;;;;;;;3.00;1.00;;;;;13.47;100.00;99007.94;2108187;27;46837;-51
2024/02/23 01:28:04;;;;;;;;;1.00;1.00;;;;;13.49;100.00;99000.69;2107501;27;46863;-52
2024/02/23 01:29:04;;;;;;;;;2.00;1.00;;;;;13.51;100.00;99012.13;2107710;27;46241;-48
2024/02/23 01:30:05;;;;;;;;;3.00;1.00;;;;;13.54;100.00;99008.41;2107518;27;46329;-52
2024/02/23 01:31:10;;;;;;;;;1.00;0.00;;;;;13.52;100.00;98997.84;2081891;28;46414;-51
2024/02/23 01:32:10;;;;;;;;;0.50;0.50;;;;;13.50;100.00;99005.06;2083021;28;46316;-49
2024/02/23 01:33:11;;;;;;;;;1.00;1.00;;;;;13.50;100.00;98997.06;2098401;28;46570;-50
2024/02/23 01:34:11;;;;;;;;;0.00;0.00;;;;;13.46;100.00;98986.69;2098947;28;45513;-52
2024/02/23 01:35:11;;;;;;;;;0.00;0.00;;;;;13.44;100.00;98991.25;2100237;28;46454;-48
2024/02/23 01:36:12;;;;;;;;;1.67;0.00;;;;;13.44;100.00;98986.78;2100381;28;46312;-51
2024/02/23 01:37:12;;;;;;;;;0.00;0.00;;;;;13.43;100.00;98997.53;2100301;28;46316;-50
2024/02/23 01:38:18;;;;;;;;;2.33;0.33;;;;;13.41;100.00;98989.63;2099678;28;46203;-51
2024/02/23 01:39:19;;;;;;;;;1.00;1.00;;;;;13.37;100.00;98992.59;2099632;28;46823;-48
2024/02/23 01:40:19;;;;;;;;;0.00;0.00;;;;;13.38;100.00;98986.31;2099959;28;46494;-49
2024/02/23 01:41:19;;;;;;;;;1.00;1.00;;;;;13.38;100.00;98988.97;2099674;28;46760;-50
2024/02/23 01:42:20;;;;;;;;;0.67;0.67;;;;;13.29;100.00;98993.03;2099840;28;46596;-51
2024/02/23 01:43:20;;;;;;;;;0.67;0.67;;;;;13.12;100.00;98993.16;2100394;28;46671;-52
2024/02/23 01:44:21;;;;;;;;;1.00;1.00;;;;;13.06;100.00;98983.72;2090613;28;46223;-51
2024/02/23 01:45:21;;;;;;;;;0.25;0.00;;;;;13.05;100.00;98979.34;2092025;28;45309;-53
2024/02/23 01:46:22;;;;;;;;;1.00;1.00;;;;;13.04;100.00;98982.97;2100579;28;46678;-52
2024/02/23 01:47:25;;;;;;;;;1.00;0.00;;;;;13.05;100.00;98968.69;2099725;28;46508;-48
2024/02/23 01:48:26;;;;;;;;;1.00;1.00;;;;;13.03;100.00;98978.59;2099086;28;46538;-51
2024/02/23 01:49:31;;;;;;;;;0.25;0.25;;;;;12.99;100.00;98973.53;2099655;28;46458;-51
2024/02/23 01:50:32;;;;;;;;;0.25;0.25;;;;;12.92;100.00;98973.88;2095385;28;46304;-53
2024/02/23 01:51:34;;;;;;;;;1.00;1.00;;;;;12.97;100.00;98978.97;2098993;28;46846;-49
2024/02/23 01:52:35;;;;;;;;;1.00;1.00;;;;;12.95;100.00;98975.50;2099442;28;46384;-48
2024/02/23 01:53:35;;;;;;;;;2.50;1.75;;;;;12.91;100.00;98982.81;2100917;28;46480;-50
2024/02/23 01:54:36;;;;;;;;;3.33;1.00;;;;;12.94;100.00;98982.63;2099392;28;46238;-51
2024/02/23 01:55:37;;;;;;;;;0.67;0.67;;;;;12.95;100.00;98976.38;2100379;28;46448;-51
2024/02/23 01:56:39;;;;;;;;;2.25;1.75;;;;;12.96;100.00;98977.25;2099720;28;46454;-51
2024/02/23 01:57:40;;;;;;;;;1.00;0.75;;;;;12.97;100.00;98965.66;2099938;28;46757;-50
2024/02/23 01:58:40;;;;;;;;;2.33;1.00;;;;;12.93;100.00;98975.59;2100292;28;46766;-48
2024/02/23 01:59:41;;;;;;;;;2.67;1.67;;;;;12.94;100.00;98982.63;2099587;28;46548;-50
2024/02/23 02:00:41;;;;;;;;;0.00;0.00;;;;;12.93;100.00;98978.25;2100491;28;46455;-49
2024/02/23 02:01:43;;;;;;;;;2.00;0.67;;;;;13.00;100.00;98975.25;2099374;27;46694;-49
2024/02/23 02:02:44;;;;;;;;;0.00;0.00;;;;;13.04;100.00;98966.97;2100172;28;46955;-51
2024/02/23 02:03:44;;;;;;;;;1.25;0.75;;;;;13.07;100.00;98971.25;2099823;28;46557;-51
2024/02/23 02:04:45;;;;;;;;;0.33;0.33;;;;;13.09;100.00;98961.41;2100468;28;46368;-50
2024/02/23 02:05:45;;;;;;;;;0.00;0.00;;;;;13.08;100.00;98965.84;2099566;28;46193;-50
2024/02/23 02:06:47;;;;;;;;;0.67;0.67;;;;;13.08;100.00;98965.84;2098706;28;46209;-49
2024/02/23 02:07:53;;;;;;;;;1.25;0.75;;;;;13.09;100.00;98959.59;2099677;28;46414;-53
2024/02/23 02:08:54;;;;;;;;;1.00;1.00;;;;;13.30;100.00;98969.91;2100010;28;46552;-51
2024/02/23 02:09:54;;;;;;;;;2.00;0.00;;;;;13.32;100.00;98950.22;2099107;28;46426;-50
2024/02/23 02:10:54;;;;;;;;;1.00;0.33;;;;;13.23;100.00;98961.47;2099834;28;46303;-49
2024/02/23 02:11:55;;;;;;;;;1.00;1.00;;;;;13.07;100.00;98958.81;2099703;28;45863;-49
2024/02/23 02:12:55;;;;;;;;;1.00;1.00;;;;;13.01;100.00;98967.16;2099241;28;46312;-49
2024/02/23 02:13:55;;;;;;;;;1.00;1.00;;;;;12.98;100.00;98956.72;2099537;28;46425;-47
2024/02/23 02:14:56;;;;;;;;;1.00;1.00;;;;;12.97;100.00;98965.66;2099728;28;46546;-48
2024/02/23 02:16:05;;;;;;;;;0.67;0.67;;;;;12.97;100.00;98968.31;2101305;28;46262;-51
2024/02/23 02:17:06;;;;;;;;;0.00;0.00;;;;;12.95;100.00;98970.19;2099530;28;46698;-52
2024/02/23 02:18:07;;;;;;;;;1.50;1.00;;;;;12.95;100.00;98959.53;2099137;28;46685;-50
2024/02/23 02:19:08;;;;;;;;;1.00;0.00;;;;;12.96;100.00;98958.63;2100215;28;46600;-47
2024/02/23 02:20:13;;;;;;;;;1.00;1.00;;;;;12.97;100.00;98963.00;2100075;28;46545;-51
2024/02/23 02:21:13;;;;;;;;;0.00;0.00;;;;;12.95;100.00;98967.53;2099871;28;46444;-51
2024/02/23 02:22:14;;;;;;;;;0.00;0.00;;;;;12.91;100.00;98964.19;2099565;28;46280;-53
2024/02/23 02:23:14;;;;;;;;;0.00;0.00;;;;;12.92;100.00;98960.56;2090487;28;46312;-49
2024/02/23 02:24:14;;;;;;;;;1.00;1.00;;;;;12.99;100.00;98953.09;2091094;28;45525;-51
2024/02/23 02:25:18;;;;;;;;;0.67;0.00;;;;;13.03;100.00;98954.63;2090074;28;46799;-48
2024/02/23 02:26:19;;;;;;;;;0.25;0.25;;;;;13.05;100.00;98962.50;2080409;28;47069;-48
2024/02/23 02:27:19;;;;;;;;;1.25;1.00;;;;;13.07;100.00;98955.28;2087572;28;46933;-49
2024/02/23 02:28:20;;;;;;;;;0.00;0.00;;;;;13.00;100.00;98960.13;2099767;28;46566;-53
2024/02/23 02:29:21;;;;;;;;;0.25;0.25;;;;;12.96;100.00;98953.28;2100517;28;46143;-49
2024/02/23 02:30:21;;;;;;;;;0.00;0.00;;;;;12.99;100.00;98952.25;2099927;28;46161;-49
2024/02/23 02:31:22;;;;;;;;;1.00;1.00;;;;;12.95;100.00;98952.41;2099881;28;45682;-50
2024/02/23 02:32:22;;;;;;;;;0.00;0.00;;;;;12.93;100.00;98954.31;2105377;27;47003;-49
2024/02/23 02:33:23;;;;;;;;;1.25;0.75;;;;;12.88;100.00;98945.75;2107163;27;46637;-50
2024/02/23 02:34:23;;;;;;;;;0.00;0.00;;;;;12.84;100.00;98952.22;2108063;27;46729;-50
2024/02/23 02:35:23;;;;;;;;;0.33;0.00;;;;;12.78;100.00;98954.34;2108260;27;46265;-52
2024/02/23 02:36:24;;;;;;;;;0.33;0.33;;;;;12.79;100.00;98948.09;2107183;27;46858;-48
2024/02/23 02:37:25;;;;;;;;;1.33;1.00;;;;;12.84;100.00;98946.03;2106852;27;46418;-52
2024/02/23 02:38:25;;;;;;;;;0.00;0.00;;;;;13.09;100.00;98946.28;2107846;27;46772;-51
2024/02/23 02:39:25;;;;;;;;;1.67;0.33;;;;;13.17;100.00;98932.47;2107475;27;46478;-53
2024/02/23 02:40:26;;;;;;;;;1.00;1.00;;;;;13.15;100.00;98937.91;2104718;27;46585;-51
2024/02/23 02:41:29;;;;;;;;;0.33;0.33;;;;;13.17;100.00;98924.50;2105270;27;46527;-50
2024/02/23 02:42:30;;;;;;;;;1.00;0.00;;;;;13.08;100.00;98941.00;2107436;27;46911;-50
2024/02/23 02:43:31;;;;;;;;;1.00;0.00;;;;;12.96;100.00;98924.00;2108154;27;46677;-49
2024/02/23 02:44:31;;;;;;;;;1.00;1.00;;;;;12.94;100.00;98931.19;2107158;27;46314;-53
2024/02/23 02:45:32;;;;;;;;;1.00;0.00;;;;;12.94;100.00;98920.53;2107718;27;46783;-50
2024/02/23 02:46:32;;;;;;;;;1.00;0.00;;;;;12.89;100.00;98923.50;2107821;27;46790;-48
2024/02/23 02:47:32;;;;;;;;;2.00;0.33;;;;;12.87;100.00;98932.53;2107616;27;46539;-50
2024/02/23 02:48:33;;;;;;;;;2.67;1.00;;;;;12.88;100.00;98912.94;2107356;27;46701;-51
2024/02/23 02:49:33;;;;;;;;;0.00;0.00;;;;;12.89;100.00;98907.53;2108288;27;46597;-51
2024/02/23 02:50:33;;;;;;;;;1.00;0.00;;;;;12.89;100.00;98912.84;2107936;27;46492;-50
2024/02/23 02:51:34;;;;;;;;;2.00;1.00;;;;;12.89;100.00;98915.50;2107663;27;46416;-51
2024/02/23 02:52:34;;;;;;;;;1.00;1.00;;;;;12.90;100.00;98903.06;2081238;28;46902;-49
2024/02/23 02:53:34;;;;;;;;;1.00;0.33;;;;;12.95;100.00;98906.28;2081613;28;46453;-51
2024/02/23 02:54:35;;;;;;;;;2.00;1.00;;;;;12.98;100.00;98899.94;2106873;27;46207;-48
2024/02/23 02:55:36;;;;;;;;;0.00;0.00;;;;;12.95;100.00;98903.63;2107342;27;46345;-50
2024/02/23 02:56:42;;;;;;;;;3.50;2.00;;;;;12.95;100.00;98904.47;2105853;27;46337;-50
2024/02/23 02:57:44;;;;;;;;;20.40;18.80;;;;;12.95;100.00;98893.81;2105755;27;46617;-48
2024/02/23 02:58:44;;;;;;;;;4.25;3.00;;;;;12.91;100.00;98899.44;2107455;27;46796;-52
2024/02/23 02:59:45;;;;;;;;;2.00;2.00;;;;;12.92;100.00;98898.47;2105416;27;47055;-50
2024/02/23 03:00:46;;;;;;;;;1.00;1.00;;;;;12.89;100.00;98888.03;2106447;27;46696;-49
2024/02/23 03:01:46;;;;;;;;;2.33;1.00;;;;;12.88;100.00;98900.47;2108245;27;46568;-48
2024/02/23 03:02:47;;;;;;;;;1.33;1.00;;;;;13.10;100.00;98888.53;2106180;27;46688;-48
2024/02/23 03:03:47;;;;;;;;;1.00;0.00;;;;;13.18;100.00;98886.25;2106865;27;46450;-48
2024/02/23 03:04:51;;;;;;;;;0.00;0.00;;;;;13.21;100.00;98888.75;2107338;27;46871;-48
2024/02/23 03:05:51;;;;;;;;;1.00;1.00;;;;;13.22;100.00;98878.03;2106932;27;46443;-53
2024/02/23 03:06:52;;;;;;;;;0.00;0.00;;;;;13.24;100.00;98883.25;2107692;27;46817;-48
2024/02/23 03:07:52;;;;;;;;;0.67;0.00;;;;;13.27;100.00;98887.53;2098299;28;46945;-51
2024/02/23 03:08:52;;;;;;;;;2.00;0.00;;;;;13.28;100.00;98881.25;2097880;28;46637;-47
2024/02/23 03:09:54;;;;;;;;;2.00;0.00;;;;;13.29;100.00;98881.16;2107993;27;46288;-47
2024/02/23 03:10:54;;;;;;;;;1.25;1.00;;;;;13.20;100.00;98874.56;2106999;27;46827;-49
2024/02/23 03:11:54;;;;;;;;;0.00;0.00;;;;;13.21;100.00;98876.31;2099002;28;47662;-48
2024/02/23 03:12:55;;;;;;;;;1.33;1.00;;;;;13.18;100.00;98873.81;2099324;28;45935;-47
2024/02/23 03:13:55;;;;;;;;;0.00;0.00;;;;;13.20;100.00;98882.56;2107467;27;46694;-48
2024/02/23 03:14:56;;;;;;;;;0.00;0.00;;;;;13.20;100.00;98879.03;2109938;27;46696;-49
2024/02/23 03:15:56;;;;;;;;;0.00;0.00;;;;;13.13;100.00;98870.56;2106971;27;46259;-50
2024/02/23 03:16:56;;;;;;;;;1.33;0.67;;;;;13.20;100.00;98876.38;2105303;27;46256;-48
2024/02/23 03:17:57;;;;;;;;;2.00;1.00;;;;;13.19;100.00;98870.19;2106914;27;46248;-50
2024/02/23 03:18:58;;;;;;;;;1.00;1.00;;;;;13.19;100.00;98880.00;2107694;27;45857;-49
2024/02/23 03:19:58;;;;;;;;;2.00;0.00;;;;;13.20;100.00;98874.56;2094910;28;47039;-50
2024/02/23 03:20:59;;;;;;;;;0.00;0.00;;;;;13.22;100.00;98867.38;2094838;28;46666;-46
2024/02/23 03:21:59;;;;;;;;;2.00;0.00;;;;;13.20;100.00;98855.94;2108312;27;46648;-48
2024/02/23 03:23:01;;;;;;;;;0.67;0.00;;;;;13.17;100.00;98861.41;2106290;27;46428;-53
2024/02/23 03:24:01;;;;;;;;;1.00;1.00;;;;;13.12;100.00;98858.19;2107799;27;45228;-48
2024/02/23 03:25:08;;;;;;;;;1.67;0.67;;;;;13.11;100.00;98861.81;2107029;27;46699;-50
2024/02/23 03:26:09;;;;;;;;;0.00;0.00;;;;;13.11;100.00;98859.16;2106207;27;46509;-50
2024/02/23 03:27:09;;;;;;;;;0.00;0.00;;;;;13.07;100.00;98856.75;2107029;27;46224;-50
2024/02/23 03:28:09;;;;;;;;;0.00;0.00;;;;;13.08;100.00;98846.00;2107211;27;46585;-51
2024/02/23 03:29:10;;;;;;;;;0.00;0.00;;;;;13.10;100.00;98859.25;2107211;27;46507;-51
2024/02/23 03:30:10;;;;;;;;;0.00;0.00;;;;;13.10;100.00;98860.09;2107430;27;46216;-51
2024/02/23 03:31:11;;;;;;;;;2.00;1.00;;;;;13.12;100.00;98844.03;2104984;27;46063;-51
2024/02/23 03:32:11;;;;;;;;;0.00;0.00;;;;;13.12;100.00;98841.38;2108976;27;46423;-51
2024/02/23 03:33:11;;;;;;;;;0.67;0.00;;;;;13.12;100.00;98844.03;2111761;27;46355;-49
2024/02/23 03:34:13;;;;;;;;;0.67;0.67;;;;;13.09;100.00;98837.09;2109015;27;46294;-52
2024/02/23 03:35:13;;;;;;;;;0.00;0.00;;;;;13.07;100.00;98841.63;2092974;28;46181;-48
2024/02/23 03:36:13;;;;;;;;;0.00;0.00;;;;;13.07;100.00;98841.63;2093154;27;46636;-51
2024/02/23 03:37:13;;;;;;;;;0.00;0.00;;;;;13.07;100.00;98838.09;2090214;28;45680;-51
2024/02/23 03:38:14;;;;;;;;;2.00;1.00;;;;;13.08;100.00;98834.50;2089989;28;46352;-49
2024/02/23 03:39:14;;;;;;;;;0.00;0.00;;;;;13.10;100.00;98832.63;2111025;27;46480;-54
2024/02/23 03:40:15;;;;;;;;;0.00;0.00;;;;;13.10;100.00;98829.97;2111382;27;46261;-50
2024/02/23 03:41:15;;;;;;;;;0.33;0.00;;;;;13.09;100.00;98826.44;2111053;27;46179;-48
2024/02/23 03:42:15;;;;;;;;;0.00;0.00;;;;;13.10;100.00;98825.47;2109976;27;46202;-52
2024/02/23 03:43:16;;;;;;;;;0.00;0.00;;;;;13.08;100.00;98822.03;2098328;28;46316;-52
2024/02/23 03:44:16;;;;;;;;;0.33;0.00;;;;;13.07;100.00;98819.47;2098357;28;46266;-51
2024/02/23 03:45:16;;;;;;;;;1.00;0.00;;;;;13.09;100.00;98830.91;2111544;27;46600;-50
2024/02/23 03:46:17;;;;;;;;;0.00;0.00;;;;;13.11;100.00;98807.69;2110505;27;46714;-50
2024/02/23 03:47:17;;;;;;;;;0.00;0.00;;;;;13.10;100.00;98809.50;2109223;27;46364;-51
2024/02/23 03:48:18;;;;;;;;;0.00;0.00;;;;;13.09;100.00;98809.59;2110698;27;46272;-48
2024/02/23 03:49:18;;;;;;;;;0.00;0.00;;;;;13.06;100.00;98807.97;2111322;27;46192;-48
2024/02/23 03:50:18;;;;;;;;;0.00;0.00;;;;;13.07;100.00;98807.00;2111464;27;46249;-52
2024/02/23 03:51:19;;;;;;;;;1.00;1.00;;;;;12.98;100.00;98804.09;2111637;27;46115;-53
2024/02/23 03:52:19;;;;;;;;;3.00;0.00;;;;;13.03;100.00;98800.19;2110670;27;45944;-52
2024/02/23 03:53:19;;;;;;;;;0.67;0.67;;;;;13.04;100.00;98804.53;2109240;27;46597;-49
2024/02/23 03:54:20;;;;;;;;;0.67;0.00;;;;;13.04;100.00;98807.22;2111469;27;46043;-50
2024/02/23 03:55:20;;;;;;;;;2.00;0.67;;;;;13.03;100.00;98801.97;2110318;27;45615;-49
2024/02/23 03:56:20;;;;;;;;;0.67;0.00;;;;;12.96;100.00;98809.50;2111450;27;46626;-50
2024/02/23 03:57:21;;;;;;;;;0.00;0.00;;;;;12.94;100.00;98806.06;2111285;27;46504;-51
2024/02/23 03:58:21;;;;;;;;;0.67;0.00;;;;;12.94;100.00;98798.94;2111183;27;47107;-52
2024/02/23 03:59:21;;;;;;;;;0.00;0.00;;;;;12.90;100.00;98801.88;2111879;27;46268;-50
2024/02/23 04:00:23;;;;;;;;;0.00;0.00;;;;;12.74;100.00;98812.63;2110586;27;45423;-49
2024/02/23 04:01:23;;;;;;;;;0.00;0.00;;;;;12.77;100.00;98804.44;2110925;27;46364;-52
2024/02/23 04:02:23;;;;;;;;;0.67;0.00;;;;;12.77;100.00;98806.25;2111472;27;46230;-50
2024/02/23 04:03:24;;;;;;;;;1.00;0.00;;;;;12.79;100.00;98809.66;2110801;27;46481;-49
2024/02/23 04:04:24;;;;;;;;;0.00;0.00;;;;;12.91;100.00;98807.09;2109838;27;46676;-52
2024/02/23 04:05:24;;;;;;;;;0.00;0.00;;;;;12.96;100.00;98805.03;2107778;27;46610;-52
2024/02/23 04:06:24;;;;;;;;;0.00;0.00;;;;;12.96;100.00;98799.72;2111127;27;46630;-52
2024/02/23 04:07:25;;;;;;;;;0.00;0.00;;;;;13.04;100.00;98801.03;2111769;27;46623;-50
2024/02/23 04:08:25;;;;;;;;;0.00;0.00;;;;;13.05;100.00;98816.06;2110801;27;46696;-52
2024/02/23 04:09:26;;;;;;;;;0.00;0.00;;;;;13.04;100.00;98796.56;2110968;27;46590;-53
2024/02/23 04:10:26;;;;;;;;;0.00;0.00;;;;;13.04;100.00;98798.38;2111825;27;46232;-52
2024/02/23 04:11:26;;;;;;;;;0.00;0.00;;;;;13.01;100.00;98794.09;2098405;28;45659;-50
2024/02/23 04:12:27;;;;;;;;;0.00;0.00;;;;;12.85;100.00;98799.53;2097521;28;46485;-53
2024/02/23 04:13:27;;;;;;;;;0.00;0.00;;;;;12.84;100.00;98797.81;2089970;28;46244;-50
2024/02/23 04:14:27;;;;;;;;;0.00;0.00;;;;;13.01;100.00;98796.75;2089636;28;46354;-48
2024/02/23 04:15:28;;;;;;;;;0.00;0.00;;;;;13.05;100.00;98800.06;2110678;27;46092;-51
2024/02/23 04:16:28;;;;;;;;;2.00;0.00;;;;;13.05;100.00;98800.94;2110942;27;45538;-51
2024/02/23 04:17:28;;;;;;;;;0.00;0.00;;;;;13.05;100.00;98795.59;2110823;27;46722;-48
2024/02/23 04:18:28;;;;;;;;;1.00;1.00;;;;;13.08;100.00;98792.75;2111525;27;46663;-49
2024/02/23 04:19:29;;;;;;;;;1.00;0.00;;;;;13.07;100.00;98790.19;2110674;27;46266;-49
2024/02/23 04:20:29;;;;;;;;;0.00;0.00;;;;;13.06;100.00;98792.00;2092213;28;46610;-50
2024/02/23 04:21:29;;;;;;;;;0.00;0.00;;;;;13.07;100.00;98791.03;2091605;28;46665;-48
2024/02/23 04:22:30;;;;;;;;;0.00;0.00;;;;;13.05;100.00;98790.28;2110771;27;46770;-49
2024/02/23 04:23:30;;;;;;;;;0.00;0.00;;;;;13.07;100.00;98796.34;2111362;27;46171;-52
2024/02/23 04:24:31;;;;;;;;;0.00;0.00;;;;;13.06;100.00;98788.47;2110938;27;45562;-47
2024/02/23 04:25:31;;;;;;;;;2.00;0.00;;;;;12.99;100.00;98795.16;2110777;27;46741;-47
2024/02/23 04:26:31;;;;;;;;;0.33;0.00;;;;;13.02;100.00;98785.16;2111196;27;46403;-48
2024/02/23 04:27:32;;;;;;;;;0.00;0.00;;;;;13.00;100.00;98787.06;2111727;27;46881;-51
2024/02/23 04:28:33;;;;;;;;;0.00;0.00;;;;;12.91;100.00;98784.97;2091921;28;46330;-49
2024/02/23 04:29:34;;;;;;;;;1.00;0.00;;;;;12.93;100.00;98785.72;2094216;27;46381;-47
2024/02/23 04:30:34;;;;;;;;;0.00;0.00;;;;;12.92;100.00;98786.66;2108737;27;46959;-52
2024/02/23 04:31:37;;;;;;;;;0.33;0.33;;;;;12.93;100.00;98791.03;2110611;27;46258;-51
2024/02/23 04:32:38;;;;;;;;;2.50;1.25;;;;;12.94;100.00;98779.44;2106257;27;46892;-50
2024/02/23 04:33:39;;;;;;;;;0.00;0.00;;;;;12.93;100.00;98778.59;2106898;27;46431;-48
2024/02/23 04:34:40;;;;;;;;;0.00;0.00;;;;;12.94;100.00;98790.09;2106364;27;46366;-50
2024/02/23 04:35:40;;;;;;;;;1.00;0.00;;;;;12.96;100.00;98781.06;2107012;27;46800;-50
2024/02/23 04:36:40;;;;;;;;;0.33;0.00;;;;;13.01;100.00;98787.91;2105452;27;46593;-51
2024/02/23 04:37:45;;;;;;;;;1.33;0.33;;;;;13.04;100.00;98785.91;2106120;27;46480;-50
2024/02/23 04:38:45;;;;;;;;;3.75;0.00;;;;;13.02;100.00;98781.63;2104153;27;46906;-49
2024/02/23 04:39:45;;;;;;;;;2.00;0.00;;;;;13.02;100.00;98789.63;2106221;27;46664;-50
2024/02/23 04:40:46;;;;;;;;;0.00;0.00;;;;;12.99;100.00;98795.16;2107666;27;46545;-49
2024/02/23 04:41:46;;;;;;;;;0.33;0.33;;;;;13.04;100.00;98795.69;2107234;27;47083;-49